createdAt,value
2023-03-23T15:58:35.958Z,26.90
2023-03-23T16:03:51.172Z,21.73
2023-03-23T16:08:55.020Z,21.85
2023-03-23T16:13:56.602Z,20.02
2023-03-23T16:18:58.073Z,25.55
2023-03-23T16:23:59.492Z,20.17
2023-03-23T16:29:13.871Z,21.55
2023-03-23T16:34:18.548Z,18.52
2023-03-23T16:39:20.153Z,20.90
2023-03-23T16:44:22.082Z,24.05
2023-03-23T16:49:23.549Z,19.65
2023-03-23T16:54:24.932Z,23.35
2023-03-23T16:59:27.897Z,24.40
2023-03-23T17:04:29.966Z,20.02
2023-03-23T17:09:31.452Z,20.98
2023-03-23T17:14:33.040Z,19.70
2023-03-23T17:19:34.446Z,17.88
2023-03-23T17:24:35.852Z,23.42
2023-03-23T17:29:37.335Z,21.63
2023-03-23T17:34:39.090Z,23.05
2023-03-23T17:39:43.203Z,29.42
2023-03-23T17:44:45.056Z,21.73
2023-03-23T17:49:46.602Z,25.17
2023-03-23T17:54:48.167Z,27.35
2023-03-23T17:59:50.874Z,24.95
2023-03-23T18:04:52.297Z,22.98
2023-03-23T18:09:57.785Z,28.67
2023-03-23T18:14:59.435Z,20.77
2023-03-23T18:20:03.196Z,24.95
2023-03-23T18:25:05.227Z,25.17
2023-03-23T18:30:07.182Z,23.25
2023-03-23T18:35:09.914Z,24.85
2023-03-23T18:40:11.905Z,21.15
2023-03-23T18:45:13.566Z,29.42
2023-03-23T18:50:15.499Z,26.10
2023-03-23T18:55:16.946Z,20.85
2023-03-23T19:00:20.176Z,19.27
2023-03-23T19:05:22.285Z,15.75
2023-03-23T19:10:24.094Z,20.05
2023-03-23T19:15:25.808Z,17.45
2023-03-23T19:21:00.419Z,20.27
2023-03-23T19:25:50.170Z,19.77
2023-03-23T19:30:55.945Z,22.42
2023-03-23T19:36:07.350Z,20.58
2023-03-23T19:41:13.121Z,22.35
2023-03-23T19:46:14.664Z,17.95
2023-03-23T19:51:17.885Z,20.77
2023-03-23T19:56:21.555Z,18.58
2023-03-23T20:01:23.014Z,22.45
2023-03-23T20:11:26.185Z,19.75
2023-03-23T20:16:27.626Z,21.67
2023-03-23T20:21:29.054Z,16.00
2023-03-23T20:26:35.727Z,15.23
2023-03-23T20:31:39.128Z,12.55
2023-03-23T20:36:42.349Z,17.15
2023-03-23T20:41:43.855Z,19.13
2023-03-23T20:46:46.502Z,15.30
2023-03-23T20:51:48.140Z,17.90
2023-03-23T20:56:49.630Z,16.27
2023-03-23T21:01:51.234Z,16.05
2023-03-23T21:06:53.024Z,16.42
2023-03-23T21:11:54.559Z,13.15
2023-03-23T21:16:58.301Z,15.80
2023-03-23T21:22:00.168Z,16.63
2023-03-23T21:27:03.058Z,13.63
2023-03-23T21:32:08.117Z,16.08
2023-03-23T21:37:13.352Z,17.23
2023-03-23T21:42:14.823Z,18.27
2023-03-23T21:47:16.264Z,17.83
2023-03-23T21:52:17.625Z,18.67
2023-03-23T21:57:19.029Z,18.05
2023-03-23T22:02:20.707Z,17.88
2023-03-23T22:07:23.975Z,15.30
2023-03-23T22:12:25.720Z,17.65
2023-03-23T22:17:27.263Z,17.58
2023-03-23T22:22:28.822Z,16.23
2023-03-23T22:27:30.896Z,15.15
2023-03-23T22:32:32.424Z,13.68
2023-03-23T22:37:35.562Z,15.13
2023-03-23T22:42:37.017Z,18.13
2023-03-23T22:47:38.713Z,15.80
2023-03-23T22:52:40.674Z,16.38
2023-03-23T22:57:42.228Z,20.73
2023-03-23T23:02:43.799Z,14.57
2023-03-23T23:07:45.266Z,13.43
2023-03-23T23:12:47.706Z,15.35
2023-03-23T23:17:49.182Z,12.30
2023-03-23T23:22:52.304Z,15.88
2023-03-23T23:27:53.746Z,14.60
2023-03-23T23:32:56.731Z,15.85
2023-03-23T23:37:58.211Z,14.00
2023-03-23T23:42:59.942Z,17.75
2023-03-23T23:48:01.392Z,13.73
2023-03-23T23:53:02.943Z,13.35
2023-03-23T23:58:04.371Z,15.40
